Time;durP1;ratioP1;P1;durP2;ratioP2;P2;SDS_P1;SDS_P2;PMS_P1;PMS_P2;Temp;Humidity;BMP_temperature;BMP_pressure;BME280_temperature;BME280_humidity;BME280_pressure;Samples;Min_cycle;Max_cycle;Signal;HPM_P1;HPM_P2
2022/12/06 00:00:24;;;;;;;;;;;4.40;99.90;;;;;;5073405;28;20027;-79
2022/12/06 00:02:50;;;;;;;;;;;4.40;99.90;;;;;;5072239;28;19985;-79
2022/12/06 00:05:15;;;;;;;;;;;4.40;99.90;;;;;;5073484;28;19985;-79
2022/12/06 00:07:41;;;;;;;;;;;4.40;99.90;;;;;;5056754;28;20027;-79
2022/12/06 00:10:07;;;;;;;;;;;4.40;99.90;;;;;;5072660;28;20000;-79
2022/12/06 00:12:33;;;;;;;;;;;4.40;99.90;;;;;;5072378;28;19932;-79
2022/12/06 00:14:58;;;;;;;;;;;4.40;99.90;;;;;;5073078;28;19954;-79
2022/12/06 00:17:24;;;;;;;;;;;4.50;99.90;;;;;;5056520;28;20294;-79
2022/12/06 00:19:49;;;;;;;;;;;4.40;99.90;;;;;;5072834;28;19925;-79
2022/12/06 00:22:15;;;;;;;;;;;4.40;99.90;;;;;;5071911;28;19936;-79
2022/12/06 00:24:41;;;;;;;;;;;4.40;99.90;;;;;;5072697;28;19929;-79
2022/12/06 00:27:06;;;;;;;;;;;4.30;99.90;;;;;;5056543;28;19954;-80
2022/12/06 00:29:32;;;;;;;;;;;4.30;99.90;;;;;;5073075;28;19924;-79
2022/12/06 00:31:57;;;;;;;;;;;4.30;99.90;;;;;;5072100;28;19935;-79
2022/12/06 00:34:23;;;;;;;;;;;4.20;99.90;;;;;;5071992;28;20032;-78
2022/12/06 00:36:49;;;;;;;;;;;4.20;99.90;;;;;;5056956;28;19972;-80
2022/12/06 00:39:15;;;;;;;;;;;4.20;99.90;;;;;;5072460;28;20335;-79
2022/12/06 00:41:41;;;;;;;;;;;4.20;99.90;;;;;;5072506;28;20011;-79
2022/12/06 00:44:07;;;;;;;;;;;4.20;99.90;;;;;;5104690;28;19931;-79
2022/12/06 00:46:34;;;;;;;;;;;4.20;99.90;;;;;;5058630;28;19924;-79
2022/12/06 00:49:00;;;;;;;;;;;4.30;99.90;;;;;;5069337;28;19925;-79
2022/12/06 00:51:26;;;;;;;;;;;4.30;99.90;;;;;;5072562;28;19975;-78
2022/12/06 00:53:52;;;;;;;;;;;4.40;99.90;;;;;;5104386;28;20447;-79
2022/12/06 00:56:18;;;;;;;;;;;4.40;99.90;;;;;;5061502;28;19930;-79
2022/12/06 00:58:44;;;;;;;;;;;4.40;99.90;;;;;;5065616;28;19931;-79
2022/12/06 01:01:14;;;;;;;;;;;4.50;99.90;;;;;;5072144;28;19925;-79
2022/12/06 01:03:40;;;;;;;;;;;4.50;99.90;;;;;;5071534;28;19931;-79
2022/12/06 01:06:07;;;;;;;;;;;4.50;99.90;;;;;;5071117;28;19928;-81
2022/12/06 01:08:34;;;;;;;;;;;4.30;99.90;;;;;;5060096;28;20383;-79
2022/12/06 01:11:00;;;;;;;;;;;4.40;99.90;;;;;;5071766;28;20033;-79
2022/12/06 01:13:25;;;;;;;;;;;4.40;99.90;;;;;;5071374;28;19940;-78
2022/12/06 01:15:53;;;;;;;;;;;4.30;99.90;;;;;;5071818;28;20440;-79
2022/12/06 01:18:18;;;;;;;;;;;4.30;99.90;;;;;;5055612;28;20331;-79
2022/12/06 01:20:44;;;;;;;;;;;4.30;99.90;;;;;;5071926;28;19932;-79
2022/12/06 01:23:10;;;;;;;;;;;4.20;99.90;;;;;;5070929;28;19925;-79
2022/12/06 01:25:35;;;;;;;;;;;4.20;99.90;;;;;;5071826;28;19925;-79
2022/12/06 01:28:01;;;;;;;;;;;4.20;99.90;;;;;;5070319;28;20329;-79
2022/12/06 01:30:26;;;;;;;;;;;4.30;99.90;;;;;;5071711;28;19925;-79
2022/12/06 01:32:52;;;;;;;;;;;4.20;99.90;;;;;;5070776;28;19924;-79
2022/12/06 01:35:17;;;;;;;;;;;4.10;99.90;;;;;;5071543;28;19936;-81
2022/12/06 01:37:43;;;;;;;;;;;4.00;99.90;;;;;;5055716;28;19925;-79
2022/12/06 01:40:10;;;;;;;;;;;4.00;99.90;;;;;;5071235;28;20152;-80
2022/12/06 01:42:36;;;;;;;;;;;3.90;99.90;;;;;;5069585;28;19928;-79
2022/12/06 01:45:02;;;;;;;;;;;3.90;99.90;;;;;;5071481;28;19932;-79
2022/12/06 01:47:29;;;;;;;;;;;3.90;99.90;;;;;;5055084;28;20291;-79
2022/12/06 01:49:58;;;;;;;;;;;4.10;99.90;;;;;;5071079;28;19986;-79
2022/12/06 01:52:30;;;;;;;;;;;3.80;99.90;;;;;;5070124;28;19939;-79
2022/12/06 01:54:57;;;;;;;;;;;4.10;99.90;;;;;;5051318;28;19925;-79
2022/12/06 01:57:23;;;;;;;;;;;3.80;99.90;;;;;;5034121;28;20027;-79
2022/12/06 01:59:49;;;;;;;;;;;3.80;99.90;;;;;;5050017;28;20011;-79
2022/12/06 02:02:14;;;;;;;;;;;3.80;99.90;;;;;;5050609;28;20331;-79
2022/12/06 02:04:40;;;;;;;;;;;3.80;99.90;;;;;;5050678;28;19975;-80
2022/12/06 02:07:06;;;;;;;;;;;3.80;99.90;;;;;;5034466;28;19928;-79
2022/12/06 02:09:32;;;;;;;;;;;3.80;99.90;;;;;;5070808;28;19948;-79
2022/12/06 02:11:58;;;;;;;;;;;3.80;99.90;;;;;;5070925;28;20298;-79
2022/12/06 02:14:26;;;;;;;;;;;3.70;99.90;;;;;;5085939;28;19924;-79
2022/12/06 02:16:56;;;;;;;;;;;3.80;99.90;;;;;;5055240;28;20362;-78
2022/12/06 02:19:29;;;;;;;;;;;3.80;99.90;;;;;;5069058;28;19973;-79
2022/12/06 02:22:09;;;;;;;;;;;3.70;99.90;;;;;;5070169;28;20290;-79
2022/12/06 02:24:40;;;;;;;;;;;3.80;99.90;;;;;;5069787;28;19924;-79
2022/12/06 02:27:16;;;;;;;;;;;3.70;99.90;;;;;;5054480;28;20275;-79
2022/12/06 02:29:41;;;;;;;;;;;3.80;99.90;;;;;;5070724;28;19928;-79
2022/12/06 02:32:18;;;;;;;;;;;3.80;99.90;;;;;;5069550;28;19939;-79
2022/12/06 02:35:03;;;;;;;;;;;3.80;99.90;;;;;;5069736;28;20382;-79
2022/12/06 02:37:35;;;;;;;;;;;3.80;99.90;;;;;;5043299;28;20154;-79
2022/12/06 02:40:01;;;;;;;;;;;3.80;99.90;;;;;;5070748;28;20656;-79
2022/12/06 02:42:35;;;;;;;;;;;3.90;99.90;;;;;;5069682;28;19924;-80
2022/12/06 02:45:03;;;;;;;;;;;3.90;99.90;;;;;;5070457;28;19924;-79
2022/12/06 02:47:31;;;;;;;;;;;3.90;99.90;;;;;;5053952;28;19978;-79
2022/12/06 02:49:57;;;;;;;;;;;3.90;99.90;;;;;;5069501;28;19985;-81
2022/12/06 02:52:25;;;;;;;;;;;4.00;99.90;;;;;;5069301;28;19950;-79
2022/12/06 02:54:52;;;;;;;;;;;3.90;99.90;;;;;;5050069;28;19987;-79
2022/12/06 02:57:18;;;;;;;;;;;3.90;99.90;;;;;;5033744;28;20078;-79
2022/12/06 02:59:49;;;;;;;;;;;3.90;99.90;;;;;;5050329;28;20295;-79
2022/12/06 03:02:15;;;;;;;;;;;3.90;99.90;;;;;;5048528;28;20410;-79
2022/12/06 03:04:49;;;;;;;;;;;3.90;99.90;;;;;;5050221;28;19925;-79
2022/12/06 03:07:15;;;;;;;;;;;4.00;99.90;;;;;;5033969;28;20027;-79
2022/12/06 03:09:48;;;;;;;;;;;4.00;99.90;;;;;;5054569;28;20050;-79
2022/12/06 03:12:21;;;;;;;;;;;4.00;99.90;;;;;;5069390;28;19924;-79
2022/12/06 03:14:56;;;;;;;;;;;4.00;99.90;;;;;;5069313;28;19932;-79
2022/12/06 03:17:25;;;;;;;;;;;4.00;99.90;;;;;;5053405;28;19984;-78
2022/12/06 03:19:54;;;;;;;;;;;4.00;99.90;;;;;;5069890;28;20425;-79
2022/12/06 03:22:22;;;;;;;;;;;4.00;99.90;;;;;;5069502;28;20258;-79
2022/12/06 03:24:48;;;;;;;;;;;4.00;99.90;;;;;;5069590;28;19924;-79
2022/12/06 03:27:15;;;;;;;;;;;4.00;99.90;;;;;;5053793;28;19931;-79
2022/12/06 03:29:44;;;;;;;;;;;4.00;99.90;;;;;;5069840;28;19925;-79
2022/12/06 03:32:12;;;;;;;;;;;3.90;99.90;;;;;;5069073;28;19935;-79
2022/12/06 03:34:39;;;;;;;;;;;3.90;99.90;;;;;;5074707;28;19931;-79
2022/12/06 03:37:06;;;;;;;;;;;3.80;99.90;;;;;;5073136;28;20298;-79
2022/12/06 03:39:42;;;;;;;;;;;3.80;99.90;;;;;;5073706;28;19936;-79
2022/12/06 03:42:08;;;;;;;;;;;3.70;99.90;;;;;;5072209;28;19924;-79
2022/12/06 03:44:34;;;;;;;;;;;3.90;99.90;;;;;;5072630;28;19925;-79
2022/12/06 03:47:07;;;;;;;;;;;3.50;99.90;;;;;;5058212;28;19931;-79
2022/12/06 03:49:39;;;;;;;;;;;3.50;99.90;;;;;;5072352;28;19934;-79
2022/12/06 03:52:05;;;;;;;;;;;3.40;99.90;;;;;;5072849;28;19983;-79
2022/12/06 03:54:30;;;;;;;;;;;3.30;99.90;;;;;;5073522;28;20396;-79
2022/12/06 03:56:56;;;;;;;;;;;3.20;99.90;;;;;;5057877;28;19932;-78
2022/12/06 03:59:22;;;;;;;;;;;3.20;99.90;;;;;;5072792;28;19925;-78
2022/12/06 04:01:47;;;;;;;;;;;3.10;99.90;;;;;;5072701;28;20327;-79
2022/12/06 04:04:13;;;;;;;;;;;3.10;99.90;;;;;;5072474;28;20371;-79
2022/12/06 04:06:38;;;;;;;;;;;3.10;99.90;;;;;;5059107;28;19925;-79
2022/12/06 04:11:48;;;;;;;;;;;3.10;99.90;;;;;;5072875;28;19931;-79
2022/12/06 04:14:13;;;;;;;;;;;3.10;99.90;;;;;;5072358;28;19928;-79
2022/12/06 04:19:23;;;;;;;;;;;3.00;99.90;;;;;;5071941;28;20144;-79
2022/12/06 04:24:33;;;;;;;;;;;2.90;99.90;;;;;;5070703;28;20014;-79
2022/12/06 04:28:40;;;;;;;;;;;3.00;99.90;;;;;;5057740;28;19963;-79
2022/12/06 04:40:41;;;;;;;;;;;2.50;99.90;;;;;;5072228;28;19951;-79
2022/12/06 04:45:52;;;;;;;;;;;2.50;99.90;;;;;;5072094;28;20011;-79
2022/12/06 04:48:18;;;;;;;;;;;2.40;99.90;;;;;;5055761;28;20377;-79
2022/12/06 04:50:47;;;;;;;;;;;2.60;99.90;;;;;;5071810;28;20007;-79
2022/12/06 04:53:13;;;;;;;;;;;2.60;99.90;;;;;;5071481;28;20013;-79
2022/12/06 04:55:38;;;;;;;;;;;2.80;99.90;;;;;;5071051;28;20387;-79
2022/12/06 04:58:04;;;;;;;;;;;2.90;99.90;;;;;;5055958;28;19954;-80
2022/12/06 05:00:30;;;;;;;;;;;2.80;99.90;;;;;;5072610;28;19928;-79
2022/12/06 05:02:56;;;;;;;;;;;2.80;99.90;;;;;;5071727;28;20435;-79
2022/12/06 05:05:21;;;;;;;;;;;2.80;99.90;;;;;;5071651;28;19932;-79
2022/12/06 05:07:47;;;;;;;;;;;2.80;99.90;;;;;;5055540;28;19978;-79
2022/12/06 05:10:12;;;;;;;;;;;2.80;99.90;;;;;;5071288;28;19977;-79
2022/12/06 05:12:38;;;;;;;;;;;2.90;99.90;;;;;;5067534;28;19932;-80
2022/12/06 05:15:03;;;;;;;;;;;2.90;99.90;;;;;;5071031;28;19998;-80
2022/12/06 05:17:29;;;;;;;;;;;2.80;99.90;;;;;;5053254;28;19987;-79
2022/12/06 05:19:54;;;;;;;;;;;2.80;99.90;;;;;;5069815;28;20357;-79
2022/12/06 05:22:20;;;;;;;;;;;2.70;99.90;;;;;;5066688;28;19925;-79
2022/12/06 05:24:46;;;;;;;;;;;2.70;99.90;;;;;;5070399;28;19959;-79
2022/12/06 05:27:11;;;;;;;;;;;2.70;99.90;;;;;;5051929;28;19925;-79
2022/12/06 05:29:37;;;;;;;;;;;2.70;99.90;;;;;;5070382;28;19950;-79
2022/12/06 05:32:02;;;;;;;;;;;2.60;99.90;;;;;;5065444;28;20012;-78
2022/12/06 05:34:28;;;;;;;;;;;2.50;99.90;;;;;;5066867;28;19932;-80
2022/12/06 05:36:53;;;;;;;;;;;2.50;99.90;;;;;;5055670;28;19925;-79
2022/12/06 05:39:19;;;;;;;;;;;2.50;99.90;;;;;;5069869;28;20015;-79
2022/12/06 05:41:44;;;;;;;;;;;2.40;99.90;;;;;;5070178;28;19928;-79
2022/12/06 05:44:11;;;;;;;;;;;2.40;99.90;;;;;;5070246;28;19933;-79
2022/12/06 05:46:36;;;;;;;;;;;2.40;99.90;;;;;;5056156;28;20765;-79
2022/12/06 05:49:02;;;;;;;;;;;2.30;99.90;;;;;;5067131;28;19928;-79
2022/12/06 05:51:27;;;;;;;;;;;2.30;99.90;;;;;;5071133;28;20302;-79
2022/12/06 05:53:53;;;;;;;;;;;2.30;99.90;;;;;;5070590;28;19979;-80
2022/12/06 05:56:19;;;;;;;;;;;2.40;99.90;;;;;;5058637;28;19931;-79
2022/12/06 05:58:44;;;;;;;;;;;2.60;99.90;;;;;;5061805;28;20041;-79
2022/12/06 06:01:10;;;;;;;;;;;2.70;99.90;;;;;;5064587;28;20034;-79
2022/12/06 06:03:36;;;;;;;;;;;2.70;99.90;;;;;;5055122;28;19952;-79
2022/12/06 06:06:02;;;;;;;;;;;2.80;99.90;;;;;;5062305;28;20017;-79
2022/12/06 06:08:28;;;;;;;;;;;2.80;99.90;;;;;;5042380;28;20430;-79
2022/12/06 06:10:54;;;;;;;;;;;2.70;99.90;;;;;;5054075;28;20239;-79
2022/12/06 06:13:20;;;;;;;;;;;2.90;99.90;;;;;;5060887;28;20428;-79
2022/12/06 06:15:46;;;;;;;;;;;2.70;99.90;;;;;;5060527;28;19928;-79
2022/12/06 06:18:11;;;;;;;;;;;2.70;99.90;;;;;;5038246;28;20401;-78
2022/12/06 06:20:37;;;;;;;;;;;2.60;99.90;;;;;;5069421;28;19924;-79
2022/12/06 06:23:03;;;;;;;;;;;2.60;99.90;;;;;;5065560;28;19929;-79
2022/12/06 06:25:28;;;;;;;;;;;2.60;99.90;;;;;;5067634;28;20342;-79
2022/12/06 06:27:54;;;;;;;;;;;2.50;99.90;;;;;;5047590;28;20213;-79
2022/12/06 06:30:19;;;;;;;;;;;2.60;99.90;;;;;;5051480;28;19929;-78
2022/12/06 06:32:45;;;;;;;;;;;2.60;99.90;;;;;;5061086;28;19932;-79
2022/12/06 06:35:11;;;;;;;;;;;2.80;99.90;;;;;;5072710;28;19971;-80
2022/12/06 06:37:37;;;;;;;;;;;2.40;99.90;;;;;;5054251;28;19936;-79
2022/12/06 06:40:03;;;;;;;;;;;2.30;99.90;;;;;;5086245;28;19931;-79
2022/12/06 06:42:28;;;;;;;;;;;2.30;99.90;;;;;;5069896;28;19964;-78
2022/12/06 06:44:54;;;;;;;;;;;2.20;99.90;;;;;;5070052;28;19924;-79
2022/12/06 06:47:22;;;;;;;;;;;2.10;99.90;;;;;;5054208;28;19951;-79
2022/12/06 06:49:48;;;;;;;;;;;2.10;99.90;;;;;;5069422;28;20482;-79
2022/12/06 06:52:14;;;;;;;;;;;2.00;99.90;;;;;;5069330;28;19931;-78
2022/12/06 06:54:39;;;;;;;;;;;2.00;99.90;;;;;;5070492;28;19924;-79
2022/12/06 06:57:05;;;;;;;;;;;2.00;99.90;;;;;;5054262;28;19979;-78
2022/12/06 06:59:31;;;;;;;;;;;2.00;99.90;;;;;;5103187;28;19990;-79
2022/12/06 07:01:56;;;;;;;;;;;1.90;99.90;;;;;;5102960;28;19925;-79
2022/12/06 07:04:22;;;;;;;;;;;1.80;99.90;;;;;;5068974;28;20321;-79
2022/12/06 07:06:47;;;;;;;;;;;1.80;99.90;;;;;;5054685;28;19970;-79
2022/12/06 07:09:13;;;;;;;;;;;1.80;99.90;;;;;;5073356;28;19924;-79
2022/12/06 07:11:39;;;;;;;;;;;1.60;99.90;;;;;;5074564;28;19925;-79
2022/12/06 07:14:04;;;;;;;;;;;1.50;99.90;;;;;;5072944;28;19936;-79
2022/12/06 07:16:30;;;;;;;;;;;1.60;99.90;;;;;;5061284;28;19977;-79
2022/12/06 07:18:55;;;;;;;;;;;1.60;99.90;;;;;;5069805;28;20003;-79
2022/12/06 07:21:22;;;;;;;;;;;1.50;99.90;;;;;;5089585;28;19925;-79
2022/12/06 07:23:48;;;;;;;;;;;1.40;99.90;;;;;;5073525;28;19925;-79
2022/12/06 07:26:15;;;;;;;;;;;1.40;99.90;;;;;;5064416;28;20212;-79
2022/12/06 07:28:42;;;;;;;;;;;1.40;99.90;;;;;;5066267;28;19936;-79
2022/12/06 07:31:12;;;;;;;;;;;1.30;99.90;;;;;;5073751;28;20015;-79
2022/12/06 07:33:38;;;;;;;;;;;1.30;99.90;;;;;;5072282;28;19936;-79
2022/12/06 07:36:07;;;;;;;;;;;1.40;99.90;;;;;;5072295;28;19924;-80
2022/12/06 07:38:33;;;;;;;;;;;1.90;99.90;;;;;;5059830;28;19924;-79
2022/12/06 07:46:37;;;;;;;;;;;1.90;99.90;;;;;;5058233;28;19939;-80
2022/12/06 07:49:03;;;;;;;;;;;1.90;99.90;;;;;;5067769;28;19925;-79
2022/12/06 07:51:29;;;;;;;;;;;1.90;99.90;;;;;;5070921;28;20367;-78
2022/12/06 07:53:55;;;;;;;;;;;2.00;99.90;;;;;;5071875;28;19994;-78
2022/12/06 07:56:20;;;;;;;;;;;2.00;99.90;;;;;;5061803;28;19932;-79
2022/12/06 07:58:46;;;;;;;;;;;2.10;99.90;;;;;;5066334;28;20116;-79
2022/12/06 08:01:11;;;;;;;;;;;2.10;99.90;;;;;;5064720;28;19925;-79
2022/12/06 08:03:37;;;;;;;;;;;2.20;99.90;;;;;;5069817;28;19925;-79
2022/12/06 08:06:03;;;;;;;;;;;2.30;99.90;;;;;;5072376;28;19924;-79
2022/12/06 08:08:30;;;;;;;;;;;2.30;99.90;;;;;;5056003;28;20376;-79
2022/12/06 08:11:03;;;;;;;;;;;2.50;99.90;;;;;;5071810;28;20275;-79
2022/12/06 08:13:28;;;;;;;;;;;2.50;99.90;;;;;;5071356;28;19931;-78
2022/12/06 08:15:54;;;;;;;;;;;2.50;99.90;;;;;;5070823;28;19924;-79
2022/12/06 08:18:20;;;;;;;;;;;2.50;99.90;;;;;;5041943;28;19935;-79
2022/12/06 08:20:45;;;;;;;;;;;2.50;99.90;;;;;;5053346;28;20015;-80
2022/12/06 08:23:11;;;;;;;;;;;2.60;99.90;;;;;;5051541;28;19963;-79
2022/12/06 08:25:36;;;;;;;;;;;2.60;99.90;;;;;;5052657;28;19936;-80
2022/12/06 08:28:02;;;;;;;;;;;2.50;99.90;;;;;;5033852;28;19936;-80
2022/12/06 08:30:28;;;;;;;;;;;2.50;99.90;;;;;;5051678;28;20358;-79
2022/12/06 08:32:54;;;;;;;;;;;2.60;99.90;;;;;;5050396;28;19956;-79
2022/12/06 08:35:19;;;;;;;;;;;2.60;99.90;;;;;;5052450;28;19971;-80
2022/12/06 08:37:45;;;;;;;;;;;2.70;99.90;;;;;;5035821;28;19936;-79
2022/12/06 08:40:10;;;;;;;;;;;2.70;99.90;;;;;;5053240;28;19939;-79
2022/12/06 08:42:36;;;;;;;;;;;2.80;99.90;;;;;;5048810;28;21076;-79
2022/12/06 08:45:02;;;;;;;;;;;3.30;99.90;;;;;;5052300;28;19928;-79
2022/12/06 08:47:27;;;;;;;;;;;3.00;99.90;;;;;;5036371;28;19933;-80
2022/12/06 08:49:57;;;;;;;;;;;3.00;99.90;;;;;;5050231;28;20282;-80
2022/12/06 08:52:22;;;;;;;;;;;3.50;99.90;;;;;;5050680;28;19932;-81
2022/12/06 08:54:48;;;;;;;;;;;3.10;99.90;;;;;;5053797;28;20380;-80
2022/12/06 08:57:13;;;;;;;;;;;3.10;99.90;;;;;;5035886;28;19933;-80
2022/12/06 08:59:39;;;;;;;;;;;3.10;99.90;;;;;;5052846;28;19928;-79
2022/12/06 09:02:05;;;;;;;;;;;3.10;99.90;;;;;;5051810;28;19932;-79
2022/12/06 09:04:30;;;;;;;;;;;3.10;99.90;;;;;;5052150;28;19932;-79
2022/12/06 09:06:56;;;;;;;;;;;3.10;99.90;;;;;;5037225;28;20488;-80
2022/12/06 09:09:21;;;;;;;;;;;3.10;99.90;;;;;;5050936;28;19928;-79
2022/12/06 09:11:48;;;;;;;;;;;3.10;99.90;;;;;;5051342;28;21243;-79
2022/12/06 09:14:15;;;;;;;;;;;3.10;99.90;;;;;;5050418;28;19978;-81
2022/12/06 09:16:42;;;;;;;;;;;3.10;99.90;;;;;;5037148;28;20364;-80
2022/12/06 09:19:08;;;;;;;;;;;3.10;99.90;;;;;;5051157;28;19924;-79
2022/12/06 09:21:34;;;;;;;;;;;3.10;99.90;;;;;;5049815;28;20323;-80
2022/12/06 09:24:00;;;;;;;;;;;3.20;99.90;;;;;;5049984;28;19985;-80
2022/12/06 09:26:26;;;;;;;;;;;3.20;99.90;;;;;;5038790;28;20011;-79
2022/12/06 09:28:52;;;;;;;;;;;3.30;99.90;;;;;;5047866;28;19947;-81
2022/12/06 09:31:18;;;;;;;;;;;3.40;99.90;;;;;;5050596;28;20309;-80
2022/12/06 09:33:44;;;;;;;;;;;3.60;99.90;;;;;;5050039;28;19940;-81
2022/12/06 09:36:12;;;;;;;;;;;3.60;99.90;;;;;;5043398;28;20283;-81
2022/12/06 09:38:39;;;;;;;;;;;3.80;99.90;;;;;;5045064;28;20469;-79
2022/12/06 09:41:23;;;;;;;;;;;4.20;99.90;;;;;;5051003;28;19932;-79
2022/12/06 09:44:03;;;;;;;;;;;3.90;99.90;;;;;;5048513;28;19925;-79
2022/12/06 09:46:47;;;;;;;;;;;4.10;99.90;;;;;;5036787;28;19932;-80
2022/12/06 09:49:21;;;;;;;;;;;4.30;99.90;;;;;;5049465;28;20034;-79
2022/12/06 09:51:46;;;;;;;;;;;4.50;99.90;;;;;;5048441;28;20178;-81
2022/12/06 09:54:18;;;;;;;;;;;4.70;99.90;;;;;;5047804;28;19930;-81
2022/12/06 09:56:43;;;;;;;;;;;4.70;99.90;;;;;;5032293;28;20982;-79
2022/12/06 09:59:28;;;;;;;;;;;4.80;99.90;;;;;;5045767;28;19932;-80
2022/12/06 10:02:02;;;;;;;;;;;4.60;99.90;;;;;;5047743;28;20534;-79
2022/12/06 10:04:27;;;;;;;;;;;4.60;99.90;;;;;;5047622;28;19933;-81
2022/12/06 10:06:56;;;;;;;;;;;4.60;99.90;;;;;;5033325;28;20394;-81
2022/12/06 10:09:21;;;;;;;;;;;4.60;99.90;;;;;;5047828;28;20175;-79
2022/12/06 10:11:47;;;;;;;;;;;4.80;99.90;;;;;;5048980;28;19978;-81
2022/12/06 10:14:25;;;;;;;;;;;4.60;99.90;;;;;;5047286;28;20491;-78
2022/12/06 10:17:10;;;;;;;;;;;5.40;99.90;;;;;;5049070;28;19965;-79
2022/12/06 10:19:41;;;;;;;;;;;6.00;99.90;;;;;;5047323;28;19940;-81
2022/12/06 10:22:10;;;;;;;;;;;6.20;99.90;;;;;;5047877;28;19936;-81
2022/12/06 10:24:35;;;;;;;;;;;6.50;99.90;;;;;;5049213;28;19932;-79
2022/12/06 10:27:09;;;;;;;;;;;6.00;99.90;;;;;;5032607;28;20290;-80
2022/12/06 10:29:34;;;;;;;;;;;6.40;99.90;;;;;;5079447;28;20081;-79
2022/12/06 10:32:09;;;;;;;;;;;6.10;99.90;;;;;;5047427;28;20023;-81
2022/12/06 10:34:43;;;;;;;;;;;5.90;99.90;;;;;;5047880;28;19932;-80
2022/12/06 10:37:20;;;;;;;;;;;6.00;99.90;;;;;;5033068;28;19932;-79
2022/12/06 10:39:45;;;;;;;;;;;5.90;99.90;;;;;;5046277;28;19928;-79
2022/12/06 10:42:30;;;;;;;;;;;5.70;99.90;;;;;;5034082;28;19940;-81
2022/12/06 10:44:58;;;;;;;;;;;5.70;99.90;;;;;;5045855;28;19940;-79
2022/12/06 10:47:26;;;;;;;;;;;5.60;99.90;;;;;;5030238;28;19972;-80
2022/12/06 10:50:00;;;;;;;;;;;5.60;99.90;;;;;;5046974;28;20004;-79
2022/12/06 10:52:26;;;;;;;;;;;5.60;99.90;;;;;;5045730;28;20483;-79
2022/12/06 10:54:57;;;;;;;;;;;5.50;99.90;;;;;;5048621;28;19925;-78
2022/12/06 10:57:35;;;;;;;;;;;5.50;99.90;;;;;;5030978;28;20076;-81
2022/12/06 11:00:02;;;;;;;;;;;5.50;99.90;;;;;;5048028;28;19948;-80
2022/12/06 11:02:36;;;;;;;;;;;5.60;99.90;;;;;;5046998;28;19932;-79
2022/12/06 11:05:05;;;;;;;;;;;5.60;99.90;;;;;;5066673;28;19932;-80
2022/12/06 11:07:38;;;;;;;;;;;5.60;99.90;;;;;;5030672;28;20015;-79
2022/12/06 11:10:13;;;;;;;;;;;5.50;99.90;;;;;;5048065;28;19936;-80
2022/12/06 11:12:40;;;;;;;;;;;5.50;99.90;;;;;;5047307;28;19924;-80
2022/12/06 11:15:12;;;;;;;;;;;5.50;99.90;;;;;;5045255;28;20195;-81
2022/12/06 11:17:41;;;;;;;;;;;5.70;99.90;;;;;;5031834;28;19925;-79
2022/12/06 11:20:27;;;;;;;;;;;5.80;99.90;;;;;;5047420;28;19939;-80
2022/12/06 11:23:09;;;;;;;;;;;5.90;99.90;;;;;;5047911;28;20421;-80
2022/12/06 11:25:46;;;;;;;;;;;6.70;99.90;;;;;;5048226;28;20284;-80
2022/12/06 11:28:14;;;;;;;;;;;7.40;99.90;;;;;;5031311;28;19933;-80
2022/12/06 11:30:40;;;;;;;;;;;6.90;99.90;;;;;;5047059;28;19924;-79
2022/12/06 11:33:07;;;;;;;;;;;6.60;99.90;;;;;;5046172;28;20483;-80
2022/12/06 11:35:33;;;;;;;;;;;6.40;99.90;;;;;;5029587;28;20386;-80
2022/12/06 11:38:04;;;;;;;;;;;6.10;99.90;;;;;;5031754;28;19932;-80
2022/12/06 11:40:40;;;;;;;;;;;6.10;99.90;;;;;;5045623;28;19939;-80
2022/12/06 11:43:07;;;;;;;;;;;6.20;99.90;;;;;;5044940;28;19938;-79
2022/12/06 11:45:36;;;;;;;;;;;6.40;99.90;;;;;;5046014;28;21106;-80
2022/12/06 11:48:10;;;;;;;;;;;6.50;99.90;;;;;;5030115;28;19932;-80
2022/12/06 11:50:36;;;;;;;;;;;6.50;99.90;;;;;;5047875;28;19928;-81
2022/12/06 11:53:04;;;;;;;;;;;6.40;99.90;;;;;;5046434;28;20656;-79
2022/12/06 11:55:49;;;;;;;;;;;6.50;99.90;;;;;;5050972;28;19977;-81
2022/12/06 11:58:18;;;;;;;;;;;6.60;99.90;;;;;;5033918;28;19939;-80
2022/12/06 12:00:55;;;;;;;;;;;6.50;99.90;;;;;;5050390;28;19928;-79
2022/12/06 12:03:28;;;;;;;;;;;6.50;99.90;;;;;;5051424;28;20495;-80
2022/12/06 12:06:05;;;;;;;;;;;6.40;99.90;;;;;;5048670;28;20340;-79
2022/12/06 12:08:31;;;;;;;;;;;6.30;99.90;;;;;;5068744;28;19928;-79
2022/12/06 12:10:58;;;;;;;;;;;6.40;99.90;;;;;;5051455;28;19924;-79
2022/12/06 12:13:42;;;;;;;;;;;6.40;99.90;;;;;;5049694;28;19933;-80
2022/12/06 12:16:25;;;;;;;;;;;6.40;99.90;;;;;;5043736;28;19929;-80
2022/12/06 12:18:53;;;;;;;;;;;6.30;99.90;;;;;;5046744;28;20081;-80
2022/12/06 12:21:41;;;;;;;;;;;6.30;99.90;;;;;;5049710;28;19924;-79
2022/12/06 12:24:25;;;;;;;;;;;6.10;99.90;;;;;;5049634;28;19933;-79
2022/12/06 12:26:50;;;;;;;;;;;6.20;99.90;;;;;;5034066;28;20318;-79
2022/12/06 12:29:17;;;;;;;;;;;6.30;99.90;;;;;;5048695;28;20252;-80
2022/12/06 12:31:51;;;;;;;;;;;6.10;99.90;;;;;;5049681;28;20377;-79
2022/12/06 12:34:21;;;;;;;;;;;6.10;99.90;;;;;;5050677;28;19940;-80
2022/12/06 12:36:49;;;;;;;;;;;6.20;99.90;;;;;;5034943;28;21152;-80
2022/12/06 12:39:29;;;;;;;;;;;6.20;99.90;;;;;;5049838;28;20014;-79
2022/12/06 12:41:55;;;;;;;;;;;6.20;99.90;;;;;;5050016;28;19932;-79
2022/12/06 12:44:24;;;;;;;;;;;6.20;99.90;;;;;;5049143;28;19928;-79
2022/12/06 12:46:54;;;;;;;;;;;6.10;99.90;;;;;;5034244;28;20344;-79
2022/12/06 12:49:24;;;;;;;;;;;6.10;99.90;;;;;;5049149;28;20457;-80
2022/12/06 12:51:50;;;;;;;;;;;6.00;99.90;;;;;;5050235;28;19924;-80
2022/12/06 12:54:27;;;;;;;;;;;6.10;99.90;;;;;;5049384;28;19955;-80
2022/12/06 12:56:53;;;;;;;;;;;6.10;99.90;;;;;;5032809;28;20476;-79
2022/12/06 12:59:20;;;;;;;;;;;6.10;99.90;;;;;;5048274;28;19932;-80
2022/12/06 13:01:45;;;;;;;;;;;6.10;99.90;;;;;;5049573;28;19971;-80
2022/12/06 13:04:23;;;;;;;;;;;6.10;99.90;;;;;;5049427;28;20035;-79
2022/12/06 13:06:51;;;;;;;;;;;6.10;99.90;;;;;;5032842;28;19936;-79
2022/12/06 13:09:25;;;;;;;;;;;6.10;99.90;;;;;;5048963;28;19993;-80
2022/12/06 13:12:11;;;;;;;;;;;6.20;99.90;;;;;;5046990;28;20375;-80
2022/12/06 13:14:41;;;;;;;;;;;6.20;99.90;;;;;;5026587;28;20254;-79
2022/12/06 13:17:07;;;;;;;;;;;6.30;99.90;;;;;;5029485;28;19964;-80
2022/12/06 13:19:36;;;;;;;;;;;6.30;99.90;;;;;;5043572;28;20008;-80
2022/12/06 13:22:03;;;;;;;;;;;6.30;99.90;;;;;;5045448;28;19932;-79
2022/12/06 13:24:30;;;;;;;;;;;6.50;99.90;;;;;;5047442;28;19932;-80
2022/12/06 13:27:06;;;;;;;;;;;6.30;99.90;;;;;;5033943;28;19929;-79
2022/12/06 13:29:34;;;;;;;;;;;6.30;99.90;;;;;;5048620;28;20399;-79
2022/12/06 13:32:05;;;;;;;;;;;6.30;99.90;;;;;;5049493;28;19925;-80
2022/12/06 13:34:33;;;;;;;;;;;6.20;99.90;;;;;;5046542;28;19932;-81
2022/12/06 13:36:59;;;;;;;;;;;6.20;99.90;;;;;;5029990;28;19929;-79
2022/12/06 13:39:28;;;;;;;;;;;6.20;99.90;;;;;;5046048;28;19932;-80
2022/12/06 13:44:41;;;;;;;;;;;6.10;99.90;;;;;;5044791;28;20039;-80
2022/12/06 13:47:25;;;;;;;;;;;6.20;99.90;;;;;;5032326;28;19932;-80
2022/12/06 13:49:52;;;;;;;;;;;6.20;99.90;;;;;;5048787;28;19932;-79
2022/12/06 13:52:36;;;;;;;;;;;6.10;99.90;;;;;;5046365;28;20979;-80
2022/12/06 13:55:20;;;;;;;;;;;6.10;99.90;;;;;;5046593;28;20313;-81
2022/12/06 13:57:46;;;;;;;;;;;6.10;99.90;;;;;;5028043;28;19974;-79
2022/12/06 14:00:26;;;;;;;;;;;6.10;99.90;;;;;;5049265;28;20636;-80
2022/12/06 14:02:52;;;;;;;;;;;6.10;99.90;;;;;;5049448;28;19932;-80
2022/12/06 14:05:37;;;;;;;;;;;6.00;99.90;;;;;;5049274;28;20452;-79
2022/12/06 14:08:02;;;;;;;;;;;6.00;99.90;;;;;;5066002;28;20007;-80
2022/12/06 14:10:28;;;;;;;;;;;6.10;99.90;;;;;;5049057;28;19947;-80
2022/12/06 14:13:00;;;;;;;;;;;6.10;99.90;;;;;;5049552;28;20676;-80
2022/12/06 14:15:26;;;;;;;;;;;6.10;99.90;;;;;;5048395;28;19939;-80
2022/12/06 14:17:51;;;;;;;;;;;6.10;99.90;;;;;;5031627;28;19925;-79
2022/12/06 14:20:22;;;;;;;;;;;6.10;99.90;;;;;;5048514;28;20657;-79
2022/12/06 14:22:47;;;;;;;;;;;6.10;99.90;;;;;;5062340;28;19932;-81
2022/12/06 14:25:19;;;;;;;;;;;6.10;99.90;;;;;;5046881;28;19951;-79
2022/12/06 14:27:50;;;;;;;;;;;6.10;99.90;;;;;;5029214;28;19929;-80
2022/12/06 14:30:20;;;;;;;;;;;6.10;99.90;;;;;;5046491;28;19932;-79
2022/12/06 14:32:50;;;;;;;;;;;6.10;99.90;;;;;;5044019;28;20022;-80
2022/12/06 14:35:19;;;;;;;;;;;6.00;99.90;;;;;;5045120;28;20318;-79
2022/12/06 14:37:49;;;;;;;;;;;6.00;99.90;;;;;;5028235;28;19973;-80
2022/12/06 14:40:25;;;;;;;;;;;6.00;99.90;;;;;;5048662;28;20410;-79
2022/12/06 14:43:00;;;;;;;;;;;6.00;99.90;;;;;;5047889;28;19932;-79
2022/12/06 14:45:28;;;;;;;;;;;6.00;99.90;;;;;;5047067;28;19932;-80
2022/12/06 14:47:53;;;;;;;;;;;6.00;99.90;;;;;;5031093;28;19932;-80
2022/12/06 14:50:24;;;;;;;;;;;6.00;99.90;;;;;;5047327;28;20378;-79
2022/12/06 14:53:13;;;;;;;;;;;6.00;99.90;;;;;;5046944;28;19954;-79
2022/12/06 14:55:55;;;;;;;;;;;6.00;99.90;;;;;;5044407;28;19932;-80
2022/12/06 14:58:22;;;;;;;;;;;6.00;99.90;;;;;;5031406;28;19928;-80
2022/12/06 15:00:57;;;;;;;;;;;5.90;99.90;;;;;;5043220;28;19934;-80
2022/12/06 15:03:25;;;;;;;;;;;5.90;99.90;;;;;;5079446;28;20378;-80
2022/12/06 15:05:56;;;;;;;;;;;6.00;99.90;;;;;;5049397;28;19955;-80
2022/12/06 15:08:25;;;;;;;;;;;5.90;99.90;;;;;;5031505;28;19932;-80